Island Grove, Florida
Current Conditions -  °F | °C
As of 6:53 AM on Sunday 23 Nov 2014 (Local Time) from KGNV Reporting Station
Overcast Overcast  
Wind Chill: 68°   Ceiling: 500
Heat Index: 68°   Visibility: 10mi
Dew Point: 68°   Wind: 9mph
Humidity: 100%   Direction: 130°SE
Pressure: 29.98"   Gusts: NA
Location:  29.45°N, 82.11°W
Report Text: KGNV 231153Z 13008KT 10SM OVC005 20/20 A2998 RMK AO2 CIG 003V009 SLP150 60021 70022 T02000200 10200 20189 56012
Loading
Personal Weather Stations






























Interactive Weather Map New forecast layout! Learn more

10-Day Weather Forecast

Advertisements
Track Severe Weather on mobile